Ana Sayfa
METAR-TAF:

METAR-TAF

Havaalanları :

Tunus, Tunus

Tunus-Kartaca Uluslararası Havalimanı

Enlem: 36-50N, Boylam: 010-14E, yükseklik: 3 m

Güncel hava durumu gözlemi

Rapor saat 16:30 UTC de 33 dakika önce yapıldı.
Rüzgar batı/kuzeybatıdan 2 kt
Sıcaklık 15°C
Nem 41%
Basınç 1020 hPa
Görüş mesafesi 10 km veya daha fazla
2600 ft yükseklikte az bulutlu

METAR: DTTA 141630Z 29002KT 9999 FEW026 15/02 Q1020 NOSIG

Saat: 18:03 (17:03 UTC)

Tahmin

Rapor saat 11:00 UTC de 6 saat ve 3 dakika önce yapıldı.
Ayın 14'si saat 12 UTC'den ayın 15'si saat 12 UTC'ye kadar geçerli Tahmin
Rüzgar batı/güneybatıdan 12 kt
Görüş mesafesi 10 km veya daha fazla
2600 ft yükseklikte az bulutlu

TAF: DTTA 141100Z 1412/1512 24012KT 9999 FEW026

4.000'den fazla havaalanı için hava durumu gözlemleri ve tahminleri (METAR ve TAF raporları).

Kullanılabilir istasyonlar harita üzerinde sarı ve kırmızı noktalarla gösterilir.

İstasyonun adını görmek için fareyi noktanın üzerinde gezdirin.

Sonrasında hava gözlem ve tahminlerini görmek için tıklayın.

Haritayı değiştirmek için: yaklaştırmak için siyah artı işaretli yeşil düğmeye ve uzaklaştırmak için de eksi işaretli düğmeye hızla tıklayın; bitişik haritalar için yeşil okları kullanın.


METAR-TAF: